sensor_id;sensor_type;location;lat;lon;timestamp;P1;durP1;ratioP1;P2;durP2;ratioP2
34988;SDS011;21192;40.182;44.516;2024-02-14T00:02:12;43.80;;;24.40;;
34988;SDS011;21192;40.182;44.516;2024-02-14T00:04:38;41.58;;;23.15;;
34988;SDS011;21192;40.182;44.516;2024-02-14T00:07:04;44.40;;;23.83;;
34988;SDS011;21192;40.182;44.516;2024-02-14T00:09:30;49.38;;;23.45;;
34988;SDS011;21192;40.182;44.516;2024-02-14T00:11:56;46.90;;;24.38;;
34988;SDS011;21192;40.182;44.516;2024-02-14T00:14:22;42.03;;;22.83;;
34988;SDS011;21192;40.182;44.516;2024-02-14T00:16:49;43.45;;;22.98;;
34988;SDS011;21192;40.182;44.516;2024-02-14T00:19:16;41.35;;;22.80;;
34988;SDS011;21192;40.182;44.516;2024-02-14T00:21:42;47.00;;;23.55;;
34988;SDS011;21192;40.182;44.516;2024-02-14T00:24:08;41.55;;;23.52;;
34988;SDS011;21192;40.182;44.516;2024-02-14T00:26:34;48.97;;;24.90;;
34988;SDS011;21192;40.182;44.516;2024-02-14T00:29:00;44.55;;;22.20;;
34988;SDS011;21192;40.182;44.516;2024-02-14T00:31:27;45.95;;;22.83;;
34988;SDS011;21192;40.182;44.516;2024-02-14T00:33:53;48.40;;;24.27;;
34988;SDS011;21192;40.182;44.516;2024-02-14T00:36:20;45.17;;;23.50;;
34988;SDS011;21192;40.182;44.516;2024-02-14T00:38:46;44.80;;;24.08;;
34988;SDS011;21192;40.182;44.516;2024-02-14T00:41:11;45.72;;;24.00;;
34988;SDS011;21192;40.182;44.516;2024-02-14T00:43:37;46.50;;;24.17;;
34988;SDS011;21192;40.182;44.516;2024-02-14T00:46:03;44.20;;;25.30;;
34988;SDS011;21192;40.182;44.516;2024-02-14T00:48:31;45.33;;;24.05;;
34988;SDS011;21192;40.182;44.516;2024-02-14T00:50:57;49.80;;;24.83;;
34988;SDS011;21192;40.182;44.516;2024-02-14T00:53:24;47.13;;;25.05;;
34988;SDS011;21192;40.182;44.516;2024-02-14T00:55:50;45.60;;;25.70;;
34988;SDS011;21192;40.182;44.516;2024-02-14T00:58:16;50.53;;;24.13;;
34988;SDS011;21192;40.182;44.516;2024-02-14T01:00:42;49.53;;;25.05;;
34988;SDS011;21192;40.182;44.516;2024-02-14T01:03:08;49.78;;;24.52;;
34988;SDS011;21192;40.182;44.516;2024-02-14T01:05:37;45.47;;;24.70;;
34988;SDS011;21192;40.182;44.516;2024-02-14T01:08:04;44.53;;;23.02;;
34988;SDS011;21192;40.182;44.516;2024-02-14T01:10:30;42.47;;;23.60;;
34988;SDS011;21192;40.182;44.516;2024-02-14T01:12:56;46.85;;;24.02;;
34988;SDS011;21192;40.182;44.516;2024-02-14T01:15:22;40.22;;;23.27;;
34988;SDS011;21192;40.182;44.516;2024-02-14T01:17:48;44.90;;;23.00;;
34988;SDS011;21192;40.182;44.516;2024-02-14T01:20:14;43.35;;;23.75;;
34988;SDS011;21192;40.182;44.516;2024-02-14T01:22:40;43.17;;;24.35;;
34988;SDS011;21192;40.182;44.516;2024-02-14T01:25:06;45.33;;;24.23;;
34988;SDS011;21192;40.182;44.516;2024-02-14T01:27:32;47.33;;;24.65;;
34988;SDS011;21192;40.182;44.516;2024-02-14T01:29:58;48.35;;;24.20;;
34988;SDS011;21192;40.182;44.516;2024-02-14T01:32:24;46.92;;;24.42;;
34988;SDS011;21192;40.182;44.516;2024-02-14T01:34:51;47.22;;;24.42;;
34988;SDS011;21192;40.182;44.516;2024-02-14T01:37:17;42.72;;;24.02;;
34988;SDS011;21192;40.182;44.516;2024-02-14T01:39:45;41.70;;;22.52;;
34988;SDS011;21192;40.182;44.516;2024-02-14T01:42:11;43.90;;;23.50;;
34988;SDS011;21192;40.182;44.516;2024-02-14T01:44:37;40.92;;;22.42;;
34988;SDS011;21192;40.182;44.516;2024-02-14T01:47:03;42.30;;;22.92;;
34988;SDS011;21192;40.182;44.516;2024-02-14T01:49:31;45.30;;;23.70;;
34988;SDS011;21192;40.182;44.516;2024-02-14T01:51:59;41.47;;;23.13;;
34988;SDS011;21192;40.182;44.516;2024-02-14T01:54:29;43.92;;;23.25;;
34988;SDS011;21192;40.182;44.516;2024-02-14T01:56:56;42.83;;;22.23;;
34988;SDS011;21192;40.182;44.516;2024-02-14T01:59:23;39.72;;;22.38;;
34988;SDS011;21192;40.182;44.516;2024-02-14T02:01:50;41.03;;;22.15;;
34988;SDS011;21192;40.182;44.516;2024-02-14T02:04:18;44.50;;;23.13;;
34988;SDS011;21192;40.182;44.516;2024-02-14T02:06:45;38.30;;;21.20;;
34988;SDS011;21192;40.182;44.516;2024-02-14T02:09:11;42.67;;;22.35;;
34988;SDS011;21192;40.182;44.516;2024-02-14T02:11:50;49.38;;;23.65;;
34988;SDS011;21192;40.182;44.516;2024-02-14T02:14:19;43.30;;;22.15;;
34988;SDS011;21192;40.182;44.516;2024-02-14T02:16:46;39.47;;;21.95;;
34988;SDS011;21192;40.182;44.516;2024-02-14T02:19:13;51.17;;;23.23;;
34988;SDS011;21192;40.182;44.516;2024-02-14T02:21:43;41.88;;;22.27;;
34988;SDS011;21192;40.182;44.516;2024-02-14T02:24:11;41.40;;;21.95;;
34988;SDS011;21192;40.182;44.516;2024-02-14T02:26:37;42.58;;;23.58;;
34988;SDS011;21192;40.182;44.516;2024-02-14T02:29:03;39.10;;;22.00;;
34988;SDS011;21192;40.182;44.516;2024-02-14T02:31:30;41.13;;;22.15;;
34988;SDS011;21192;40.182;44.516;2024-02-14T02:33:56;39.83;;;23.55;;
34988;SDS011;21192;40.182;44.516;2024-02-14T02:36:23;41.35;;;22.65;;
34988;SDS011;21192;40.182;44.516;2024-02-14T02:38:50;41.28;;;23.15;;
34988;SDS011;21192;40.182;44.516;2024-02-14T02:41:16;39.58;;;22.05;;
34988;SDS011;21192;40.182;44.516;2024-02-14T02:43:42;42.53;;;22.95;;
34988;SDS011;21192;40.182;44.516;2024-02-14T02:46:11;49.70;;;25.17;;
34988;SDS011;21192;40.182;44.516;2024-02-14T02:48:37;46.30;;;24.60;;
34988;SDS011;21192;40.182;44.516;2024-02-14T02:51:03;46.78;;;24.92;;
34988;SDS011;21192;40.182;44.516;2024-02-14T02:53:29;44.08;;;23.35;;
34988;SDS011;21192;40.182;44.516;2024-02-14T02:55:55;43.45;;;24.42;;
34988;SDS011;21192;40.182;44.516;2024-02-14T02:58:22;47.78;;;24.27;;
34988;SDS011;21192;40.182;44.516;2024-02-14T03:00:48;48.42;;;26.48;;
34988;SDS011;21192;40.182;44.516;2024-02-14T03:03:14;52.55;;;27.55;;
34988;SDS011;21192;40.182;44.516;2024-02-14T03:05:41;55.65;;;27.27;;
34988;SDS011;21192;40.182;44.516;2024-02-14T03:08:09;54.75;;;28.88;;
34988;SDS011;21192;40.182;44.516;2024-02-14T03:10:40;54.50;;;28.80;;
34988;SDS011;21192;40.182;44.516;2024-02-14T03:13:06;53.50;;;29.55;;
34988;SDS011;21192;40.182;44.516;2024-02-14T03:15:37;49.22;;;27.17;;
34988;SDS011;21192;40.182;44.516;2024-02-14T03:18:03;43.38;;;26.23;;
34988;SDS011;21192;40.182;44.516;2024-02-14T03:20:34;43.33;;;26.20;;
34988;SDS011;21192;40.182;44.516;2024-02-14T03:23:01;52.67;;;26.17;;
34988;SDS011;21192;40.182;44.516;2024-02-14T03:25:29;54.05;;;29.85;;
34988;SDS011;21192;40.182;44.516;2024-02-14T03:27:55;62.10;;;29.65;;
34988;SDS011;21192;40.182;44.516;2024-02-14T03:30:22;56.50;;;29.23;;
34988;SDS011;21192;40.182;44.516;2024-02-14T03:32:48;59.28;;;30.13;;
34988;SDS011;21192;40.182;44.516;2024-02-14T03:35:15;55.85;;;30.88;;
34988;SDS011;21192;40.182;44.516;2024-02-14T03:37:43;55.10;;;31.25;;
34988;SDS011;21192;40.182;44.516;2024-02-14T03:40:12;53.80;;;31.98;;
34988;SDS011;21192;40.182;44.516;2024-02-14T03:42:38;56.13;;;32.58;;
34988;SDS011;21192;40.182;44.516;2024-02-14T03:45:05;58.95;;;32.33;;
34988;SDS011;21192;40.182;44.516;2024-02-14T03:47:32;64.40;;;34.85;;
34988;SDS011;21192;40.182;44.516;2024-02-14T03:50:01;62.88;;;34.30;;
34988;SDS011;21192;40.182;44.516;2024-02-14T03:52:29;79.50;;;38.40;;
34988;SDS011;21192;40.182;44.516;2024-02-14T03:54:57;60.13;;;35.08;;
34988;SDS011;21192;40.182;44.516;2024-02-14T03:57:24;70.32;;;34.08;;
34988;SDS011;21192;40.182;44.516;2024-02-14T03:59:54;64.20;;;36.35;;
34988;SDS011;21192;40.182;44.516;2024-02-14T04:02:21;76.15;;;38.95;;
34988;SDS011;21192;40.182;44.516;2024-02-14T04:04:48;78.97;;;37.85;;
34988;SDS011;21192;40.182;44.516;2024-02-14T04:07:14;66.45;;;35.92;;
34988;SDS011;21192;40.182;44.516;2024-02-14T04:09:40;66.43;;;36.35;;
34988;SDS011;21192;40.182;44.516;2024-02-14T04:12:06;67.85;;;36.95;;
34988;SDS011;21192;40.182;44.516;2024-02-14T04:14:35;67.55;;;37.88;;
34988;SDS011;21192;40.182;44.516;2024-02-14T04:17:01;72.70;;;37.80;;
34988;SDS011;21192;40.182;44.516;2024-02-14T04:19:26;62.70;;;33.78;;
34988;SDS011;21192;40.182;44.516;2024-02-14T04:21:53;70.78;;;37.13;;
34988;SDS011;21192;40.182;44.516;2024-02-14T04:24:19;70.25;;;36.20;;
34988;SDS011;21192;40.182;44.516;2024-02-14T04:26:45;65.93;;;36.47;;
34988;SDS011;21192;40.182;44.516;2024-02-14T04:29:14;63.33;;;35.63;;
34988;SDS011;21192;40.182;44.516;2024-02-14T04:31:40;74.53;;;36.15;;
34988;SDS011;21192;40.182;44.516;2024-02-14T04:34:08;63.35;;;36.13;;
34988;SDS011;21192;40.182;44.516;2024-02-14T04:36:35;76.13;;;35.50;;
34988;SDS011;21192;40.182;44.516;2024-02-14T04:39:01;75.95;;;35.88;;
34988;SDS011;21192;40.182;44.516;2024-02-14T04:41:27;70.53;;;36.17;;
34988;SDS011;21192;40.182;44.516;2024-02-14T04:43:52;63.90;;;34.30;;
34988;SDS011;21192;40.182;44.516;2024-02-14T04:46:18;67.65;;;35.22;;
34988;SDS011;21192;40.182;44.516;2024-02-14T04:48:45;68.22;;;33.38;;
34988;SDS011;21192;40.182;44.516;2024-02-14T04:51:10;68.47;;;34.00;;
34988;SDS011;21192;40.182;44.516;2024-02-14T04:53:37;65.50;;;33.72;;
34988;SDS011;21192;40.182;44.516;2024-02-14T04:56:03;74.05;;;35.83;;
34988;SDS011;21192;40.182;44.516;2024-02-14T04:58:29;79.05;;;39.97;;
34988;SDS011;21192;40.182;44.516;2024-02-14T05:00:55;74.47;;;38.80;;
34988;SDS011;21192;40.182;44.516;2024-02-14T05:03:21;71.28;;;37.30;;
34988;SDS011;21192;40.182;44.516;2024-02-14T05:05:49;70.18;;;35.22;;
34988;SDS011;21192;40.182;44.516;2024-02-14T05:08:16;72.00;;;36.22;;
34988;SDS011;21192;40.182;44.516;2024-02-14T05:10:42;62.38;;;35.15;;
34988;SDS011;21192;40.182;44.516;2024-02-14T05:13:07;64.93;;;35.45;;
34988;SDS011;21192;40.182;44.516;2024-02-14T05:15:33;75.10;;;38.20;;
34988;SDS011;21192;40.182;44.516;2024-02-14T05:18:00;78.00;;;41.60;;
34988;SDS011;21192;40.182;44.516;2024-02-14T05:20:26;88.40;;;42.75;;
34988;SDS011;21192;40.182;44.516;2024-02-14T05:22:52;90.57;;;44.97;;
34988;SDS011;21192;40.182;44.516;2024-02-14T05:25:18;86.25;;;44.33;;
34988;SDS011;21192;40.182;44.516;2024-02-14T05:27:44;96.88;;;46.42;;
34988;SDS011;21192;40.182;44.516;2024-02-14T05:30:12;91.82;;;46.00;;
34988;SDS011;21192;40.182;44.516;2024-02-14T05:32:38;87.35;;;44.78;;
34988;SDS011;21192;40.182;44.516;2024-02-14T05:35:04;92.97;;;45.92;;
34988;SDS011;21192;40.182;44.516;2024-02-14T05:37:31;93.07;;;45.47;;
34988;SDS011;21192;40.182;44.516;2024-02-14T05:39:57;83.32;;;45.63;;
34988;SDS011;21192;40.182;44.516;2024-02-14T05:42:23;97.65;;;48.75;;
34988;SDS011;21192;40.182;44.516;2024-02-14T05:44:49;96.85;;;47.33;;
34988;SDS011;21192;40.182;44.516;2024-02-14T05:47:17;82.72;;;45.63;;
34988;SDS011;21192;40.182;44.516;2024-02-14T05:49:43;84.43;;;46.47;;
34988;SDS011;21192;40.182;44.516;2024-02-14T05:52:09;85.35;;;47.22;;
34988;SDS011;21192;40.182;44.516;2024-02-14T05:54:35;81.63;;;44.53;;
34988;SDS011;21192;40.182;44.516;2024-02-14T05:57:01;73.50;;;41.08;;
34988;SDS011;21192;40.182;44.516;2024-02-14T05:59:27;63.83;;;40.20;;
34988;SDS011;21192;40.182;44.516;2024-02-14T06:01:53;75.05;;;41.08;;
34988;SDS011;21192;40.182;44.516;2024-02-14T06:04:19;74.07;;;42.38;;
34988;SDS011;21192;40.182;44.516;2024-02-14T06:06:45;85.57;;;42.00;;
34988;SDS011;21192;40.182;44.516;2024-02-14T06:09:11;76.95;;;44.45;;
34988;SDS011;21192;40.182;44.516;2024-02-14T06:11:37;73.13;;;44.75;;
34988;SDS011;21192;40.182;44.516;2024-02-14T06:14:07;79.80;;;43.35;;
34988;SDS011;21192;40.182;44.516;2024-02-14T06:16:36;80.68;;;45.88;;
34988;SDS011;21192;40.182;44.516;2024-02-14T06:19:02;97.93;;;50.35;;
34988;SDS011;21192;40.182;44.516;2024-02-14T06:21:31;92.43;;;50.30;;
34988;SDS011;21192;40.182;44.516;2024-02-14T06:23:58;93.20;;;51.08;;
34988;SDS011;21192;40.182;44.516;2024-02-14T06:26:24;95.43;;;55.00;;
34988;SDS011;21192;40.182;44.516;2024-02-14T06:28:51;100.75;;;54.35;;
34988;SDS011;21192;40.182;44.516;2024-02-14T06:31:20;100.50;;;54.47;;
34988;SDS011;21192;40.182;44.516;2024-02-14T06:33:47;107.53;;;54.60;;
34988;SDS011;21192;40.182;44.516;2024-02-14T06:36:13;93.43;;;55.25;;
34988;SDS011;21192;40.182;44.516;2024-02-14T06:38:39;101.57;;;57.13;;
34988;SDS011;21192;40.182;44.516;2024-02-14T06:41:05;101.32;;;54.38;;
34988;SDS011;21192;40.182;44.516;2024-02-14T06:43:31;92.88;;;54.95;;
34988;SDS011;21192;40.182;44.516;2024-02-14T06:45:57;95.13;;;54.47;;
34988;SDS011;21192;40.182;44.516;2024-02-14T06:48:23;83.95;;;54.15;;
34988;SDS011;21192;40.182;44.516;2024-02-14T06:50:50;89.32;;;53.67;;
34988;SDS011;21192;40.182;44.516;2024-02-14T06:53:16;92.78;;;55.15;;
34988;SDS011;21192;40.182;44.516;2024-02-14T06:55:42;98.63;;;57.60;;
34988;SDS011;21192;40.182;44.516;2024-02-14T06:58:08;92.30;;;55.58;;
34988;SDS011;21192;40.182;44.516;2024-02-14T07:00:34;98.35;;;55.28;;
34988;SDS011;21192;40.182;44.516;2024-02-14T07:03:00;87.15;;;53.35;;
34988;SDS011;21192;40.182;44.516;2024-02-14T07:05:26;91.05;;;51.70;;
34988;SDS011;21192;40.182;44.516;2024-02-14T07:07:54;101.32;;;56.33;;
34988;SDS011;21192;40.182;44.516;2024-02-14T07:10:20;97.60;;;58.35;;
34988;SDS011;21192;40.182;44.516;2024-02-14T07:12:47;99.32;;;60.03;;
34988;SDS011;21192;40.182;44.516;2024-02-14T07:15:12;101.90;;;56.88;;
34988;SDS011;21192;40.182;44.516;2024-02-14T07:17:39;109.72;;;57.08;;
34988;SDS011;21192;40.182;44.516;2024-02-14T07:20:05;106.60;;;57.72;;
34988;SDS011;21192;40.182;44.516;2024-02-14T07:22:35;103.25;;;58.40;;
34988;SDS011;21192;40.182;44.516;2024-02-14T07:25:01;101.80;;;59.65;;
34988;SDS011;21192;40.182;44.516;2024-02-14T07:27:28;103.03;;;56.92;;
34988;SDS011;21192;40.182;44.516;2024-02-14T07:29:54;105.20;;;58.22;;
34988;SDS011;21192;40.182;44.516;2024-02-14T07:32:20;92.70;;;55.88;;
34988;SDS011;21192;40.182;44.516;2024-02-14T07:34:46;98.70;;;54.97;;
34988;SDS011;21192;40.182;44.516;2024-02-14T07:37:12;92.22;;;54.55;;
34988;SDS011;21192;40.182;44.516;2024-02-14T07:39:40;95.38;;;57.15;;
34988;SDS011;21192;40.182;44.516;2024-02-14T07:42:06;95.18;;;55.20;;
34988;SDS011;21192;40.182;44.516;2024-02-14T07:44:32;105.15;;;56.13;;
34988;SDS011;21192;40.182;44.516;2024-02-14T07:46:58;92.55;;;53.67;;
34988;SDS011;21192;40.182;44.516;2024-02-14T07:49:24;106.35;;;55.20;;
34988;SDS011;21192;40.182;44.516;2024-02-14T07:51:50;91.32;;;54.97;;
34988;SDS011;21192;40.182;44.516;2024-02-14T07:54:15;100.78;;;55.30;;
34988;SDS011;21192;40.182;44.516;2024-02-14T07:56:41;95.32;;;54.78;;
34988;SDS011;21192;40.182;44.516;2024-02-14T07:59:07;88.20;;;54.35;;
34988;SDS011;21192;40.182;44.516;2024-02-14T08:01:33;91.40;;;55.95;;
34988;SDS011;21192;40.182;44.516;2024-02-14T08:03:59;94.35;;;56.88;;
34988;SDS011;21192;40.182;44.516;2024-02-14T08:06:25;97.28;;;56.40;;
34988;SDS011;21192;40.182;44.516;2024-02-14T08:08:51;94.93;;;55.05;;
34988;SDS011;21192;40.182;44.516;2024-02-14T08:11:22;93.85;;;53.92;;
34988;SDS011;21192;40.182;44.516;2024-02-14T08:13:48;88.30;;;52.75;;
34988;SDS011;21192;40.182;44.516;2024-02-14T08:16:14;93.25;;;55.70;;
34988;SDS011;21192;40.182;44.516;2024-02-14T08:18:40;92.55;;;51.25;;
34988;SDS011;21192;40.182;44.516;2024-02-14T08:21:09;95.38;;;52.42;;
34988;SDS011;21192;40.182;44.516;2024-02-14T08:23:36;89.78;;;53.03;;
34988;SDS011;21192;40.182;44.516;2024-02-14T08:26:04;86.07;;;53.40;;
34988;SDS011;21192;40.182;44.516;2024-02-14T08:28:35;85.13;;;51.15;;
34988;SDS011;21192;40.182;44.516;2024-02-14T08:31:02;77.28;;;47.35;;
34988;SDS011;21192;40.182;44.516;2024-02-14T08:33:28;79.65;;;45.83;;
34988;SDS011;21192;40.182;44.516;2024-02-14T08:35:54;90.03;;;50.20;;
34988;SDS011;21192;40.182;44.516;2024-02-14T08:38:22;79.00;;;48.53;;
34988;SDS011;21192;40.182;44.516;2024-02-14T08:40:48;85.90;;;50.97;;
34988;SDS011;21192;40.182;44.516;2024-02-14T08:43:14;94.13;;;49.53;;
34988;SDS011;21192;40.182;44.516;2024-02-14T08:45:40;85.47;;;49.92;;
34988;SDS011;21192;40.182;44.516;2024-02-14T08:48:06;82.45;;;50.65;;
34988;SDS011;21192;40.182;44.516;2024-02-14T08:50:32;84.90;;;48.53;;
34988;SDS011;21192;40.182;44.516;2024-02-14T08:52:58;93.53;;;50.97;;
34988;SDS011;21192;40.182;44.516;2024-02-14T08:55:24;83.38;;;49.17;;
34988;SDS011;21192;40.182;44.516;2024-02-14T08:57:50;87.03;;;51.75;;
34988;SDS011;21192;40.182;44.516;2024-02-14T09:00:16;91.28;;;53.85;;
34988;SDS011;21192;40.182;44.516;2024-02-14T09:02:45;84.90;;;52.80;;
34988;SDS011;21192;40.182;44.516;2024-02-14T09:05:12;88.47;;;52.03;;
34988;SDS011;21192;40.182;44.516;2024-02-14T09:07:38;89.93;;;51.70;;
34988;SDS011;21192;40.182;44.516;2024-02-14T09:10:06;90.18;;;50.88;;
34988;SDS011;21192;40.182;44.516;2024-02-14T09:12:32;88.75;;;50.03;;
34988;SDS011;21192;40.182;44.516;2024-02-14T09:14:58;77.82;;;50.38;;
34988;SDS011;21192;40.182;44.516;2024-02-14T09:17:24;86.97;;;53.78;;
34988;SDS011;21192;40.182;44.516;2024-02-14T09:19:50;89.80;;;54.85;;
34988;SDS011;21192;40.182;44.516;2024-02-14T09:22:17;86.65;;;53.30;;
34988;SDS011;21192;40.182;44.516;2024-02-14T09:24:46;96.88;;;57.30;;
34988;SDS011;21192;40.182;44.516;2024-02-14T09:27:13;92.53;;;54.00;;
34988;SDS011;21192;40.182;44.516;2024-02-14T09:29:39;90.00;;;55.83;;
34988;SDS011;21192;40.182;44.516;2024-02-14T09:32:05;101.50;;;56.83;;
34988;SDS011;21192;40.182;44.516;2024-02-14T09:34:31;93.65;;;56.97;;
34988;SDS011;21192;40.182;44.516;2024-02-14T09:36:57;101.93;;;59.03;;
34988;SDS011;21192;40.182;44.516;2024-02-14T09:39:24;94.15;;;55.40;;
34988;SDS011;21192;40.182;44.516;2024-02-14T09:41:54;96.55;;;57.63;;
34988;SDS011;21192;40.182;44.516;2024-02-14T09:44:24;99.72;;;59.45;;
34988;SDS011;21192;40.182;44.516;2024-02-14T09:46:56;96.65;;;64.05;;
34988;SDS011;21192;40.182;44.516;2024-02-14T09:49:23;98.60;;;65.40;;
34988;SDS011;21192;40.182;44.516;2024-02-14T09:51:50;114.03;;;69.10;;
34988;SDS011;21192;40.182;44.516;2024-02-14T09:54:17;112.85;;;69.72;;
34988;SDS011;21192;40.182;44.516;2024-02-14T09:56:52;112.05;;;72.57;;
34988;SDS011;21192;40.182;44.516;2024-02-14T09:59:19;120.43;;;70.00;;
34988;SDS011;21192;40.182;44.516;2024-02-14T10:01:46;116.97;;;73.38;;
34988;SDS011;21192;40.182;44.516;2024-02-14T10:04:14;110.80;;;71.63;;
34988;SDS011;21192;40.182;44.516;2024-02-14T10:06:40;107.78;;;73.90;;
34988;SDS011;21192;40.182;44.516;2024-02-14T10:09:06;120.00;;;71.38;;
34988;SDS011;21192;40.182;44.516;2024-02-14T10:11:34;119.53;;;74.18;;
34988;SDS011;21192;40.182;44.516;2024-02-14T10:14:01;112.45;;;71.05;;
34988;SDS011;21192;40.182;44.516;2024-02-14T10:16:29;115.47;;;68.72;;
34988;SDS011;21192;40.182;44.516;2024-02-14T10:18:55;113.65;;;68.03;;
34988;SDS011;21192;40.182;44.516;2024-02-14T10:21:23;124.30;;;68.22;;
34988;SDS011;21192;40.182;44.516;2024-02-14T10:23:50;110.82;;;68.45;;
34988;SDS011;21192;40.182;44.516;2024-02-14T10:26:18;102.32;;;65.95;;
34988;SDS011;21192;40.182;44.516;2024-02-14T10:28:44;115.78;;;67.47;;
34988;SDS011;21192;40.182;44.516;2024-02-14T10:31:10;110.22;;;68.20;;
34988;SDS011;21192;40.182;44.516;2024-02-14T10:33:38;105.22;;;67.05;;
34988;SDS011;21192;40.182;44.516;2024-02-14T10:36:07;120.15;;;70.40;;
34988;SDS011;21192;40.182;44.516;2024-02-14T10:38:33;107.53;;;68.05;;
34988;SDS011;21192;40.182;44.516;2024-02-14T10:41:00;109.65;;;67.95;;
34988;SDS011;21192;40.182;44.516;2024-02-14T10:43:27;117.18;;;66.55;;
34988;SDS011;21192;40.182;44.516;2024-02-14T10:45:56;107.60;;;63.08;;
34988;SDS011;21192;40.182;44.516;2024-02-14T10:48:25;98.35;;;66.00;;
34988;SDS011;21192;40.182;44.516;2024-02-14T10:50:58;121.82;;;71.78;;
34988;SDS011;21192;40.182;44.516;2024-02-14T10:53:28;102.45;;;65.47;;
34988;SDS011;21192;40.182;44.516;2024-02-14T10:55:57;95.47;;;64.22;;
34988;SDS011;21192;40.182;44.516;2024-02-14T10:58:24;103.95;;;66.13;;
34988;SDS011;21192;40.182;44.516;2024-02-14T11:00:51;100.88;;;61.80;;
34988;SDS011;21192;40.182;44.516;2024-02-14T11:03:17;94.07;;;61.20;;
34988;SDS011;21192;40.182;44.516;2024-02-14T11:05:44;96.22;;;60.63;;
34988;SDS011;21192;40.182;44.516;2024-02-14T11:08:14;109.70;;;62.50;;
34988;SDS011;21192;40.182;44.516;2024-02-14T11:10:51;91.40;;;58.38;;
34988;SDS011;21192;40.182;44.516;2024-02-14T11:13:20;92.03;;;58.33;;
34988;SDS011;21192;40.182;44.516;2024-02-14T11:15:46;96.93;;;60.60;;
34988;SDS011;21192;40.182;44.516;2024-02-14T11:18:24;100.03;;;60.30;;
34988;SDS011;21192;40.182;44.516;2024-02-14T11:20:51;91.40;;;57.97;;
34988;SDS011;21192;40.182;44.516;2024-02-14T11:23:21;97.05;;;58.53;;
34988;SDS011;21192;40.182;44.516;2024-02-14T11:25:47;88.82;;;57.13;;
34988;SDS011;21192;40.182;44.516;2024-02-14T11:28:14;89.72;;;58.28;;
34988;SDS011;21192;40.182;44.516;2024-02-14T11:30:50;94.03;;;57.17;;
34988;SDS011;21192;40.182;44.516;2024-02-14T11:33:18;93.47;;;57.88;;
34988;SDS011;21192;40.182;44.516;2024-02-14T11:35:49;91.70;;;57.83;;
34988;SDS011;21192;40.182;44.516;2024-02-14T11:38:16;91.97;;;58.05;;
34988;SDS011;21192;40.182;44.516;2024-02-14T11:40:43;91.80;;;58.05;;
34988;SDS011;21192;40.182;44.516;2024-02-14T11:43:12;89.05;;;58.65;;
34988;SDS011;21192;40.182;44.516;2024-02-14T11:45:40;90.30;;;57.45;;
34988;SDS011;21192;40.182;44.516;2024-02-14T11:48:16;96.15;;;59.15;;
34988;SDS011;21192;40.182;44.516;2024-02-14T11:50:43;90.15;;;54.88;;
34988;SDS011;21192;40.182;44.516;2024-02-14T11:53:10;96.40;;;59.33;;
34988;SDS011;21192;40.182;44.516;2024-02-14T11:55:37;95.18;;;58.83;;
34988;SDS011;21192;40.182;44.516;2024-02-14T11:58:07;92.15;;;58.22;;
34988;SDS011;21192;40.182;44.516;2024-02-14T12:00:36;95.25;;;59.22;;
34988;SDS011;21192;40.182;44.516;2024-02-14T12:03:06;101.72;;;58.08;;
34988;SDS011;21192;40.182;44.516;2024-02-14T12:05:34;102.57;;;61.17;;
34988;SDS011;21192;40.182;44.516;2024-02-14T12:08:02;102.78;;;59.85;;
34988;SDS011;21192;40.182;44.516;2024-02-14T12:10:31;89.68;;;56.47;;
34988;SDS011;21192;40.182;44.516;2024-02-14T12:12:57;94.80;;;60.15;;
34988;SDS011;21192;40.182;44.516;2024-02-14T12:15:25;86.30;;;55.85;;
34988;SDS011;21192;40.182;44.516;2024-02-14T12:17:54;87.35;;;55.92;;
34988;SDS011;21192;40.182;44.516;2024-02-14T12:20:21;89.18;;;54.40;;
34988;SDS011;21192;40.182;44.516;2024-02-14T12:22:51;90.32;;;56.60;;
34988;SDS011;21192;40.182;44.516;2024-02-14T12:25:17;94.03;;;54.83;;
34988;SDS011;21192;40.182;44.516;2024-02-14T12:27:49;89.53;;;56.45;;
34988;SDS011;21192;40.182;44.516;2024-02-14T12:30:16;86.40;;;52.53;;
34988;SDS011;21192;40.182;44.516;2024-02-14T12:32:43;86.82;;;54.08;;
34988;SDS011;21192;40.182;44.516;2024-02-14T12:35:10;88.20;;;53.88;;
34988;SDS011;21192;40.182;44.516;2024-02-14T12:37:36;94.43;;;53.70;;
34988;SDS011;21192;40.182;44.516;2024-02-14T12:40:02;87.68;;;52.88;;
34988;SDS011;21192;40.182;44.516;2024-02-14T12:42:30;94.00;;;55.85;;
34988;SDS011;21192;40.182;44.516;2024-02-14T12:44:57;87.95;;;54.75;;
34988;SDS011;21192;40.182;44.516;2024-02-14T12:47:23;90.45;;;54.30;;
34988;SDS011;21192;40.182;44.516;2024-02-14T12:49:51;92.65;;;53.17;;
34988;SDS011;21192;40.182;44.516;2024-02-14T12:52:17;89.22;;;53.78;;
34988;SDS011;21192;40.182;44.516;2024-02-14T12:54:43;94.15;;;56.83;;
34988;SDS011;21192;40.182;44.516;2024-02-14T12:57:09;87.22;;;51.15;;
34988;SDS011;21192;40.182;44.516;2024-02-14T12:59:35;84.32;;;51.15;;
34988;SDS011;21192;40.182;44.516;2024-02-14T13:02:01;79.65;;;50.92;;
34988;SDS011;21192;40.182;44.516;2024-02-14T13:04:27;85.53;;;50.35;;
34988;SDS011;21192;40.182;44.516;2024-02-14T13:06:53;87.15;;;51.05;;
34988;SDS011;21192;40.182;44.516;2024-02-14T13:09:19;86.70;;;48.58;;
34988;SDS011;21192;40.182;44.516;2024-02-14T13:11:45;79.93;;;47.22;;
34988;SDS011;21192;40.182;44.516;2024-02-14T13:14:11;76.53;;;44.88;;
34988;SDS011;21192;40.182;44.516;2024-02-14T13:16:38;73.20;;;44.72;;
34988;SDS011;21192;40.182;44.516;2024-02-14T13:19:04;79.60;;;47.10;;
34988;SDS011;21192;40.182;44.516;2024-02-14T13:21:30;73.90;;;45.80;;
34988;SDS011;21192;40.182;44.516;2024-02-14T13:23:56;72.85;;;44.50;;
34988;SDS011;21192;40.182;44.516;2024-02-14T13:26:22;80.45;;;44.58;;
34988;SDS011;21192;40.182;44.516;2024-02-14T13:28:49;87.45;;;46.30;;
34988;SDS011;21192;40.182;44.516;2024-02-14T13:31:15;78.47;;;44.97;;
34988;SDS011;21192;40.182;44.516;2024-02-14T13:33:42;76.82;;;44.17;;
34988;SDS011;21192;40.182;44.516;2024-02-14T13:36:07;76.78;;;44.58;;
34988;SDS011;21192;40.182;44.516;2024-02-14T13:38:33;81.90;;;45.33;;
34988;SDS011;21192;40.182;44.516;2024-02-14T13:41:00;74.70;;;43.22;;
34988;SDS011;21192;40.182;44.516;2024-02-14T13:43:26;76.40;;;45.17;;
34988;SDS011;21192;40.182;44.516;2024-02-14T13:45:52;83.55;;;44.55;;
34988;SDS011;21192;40.182;44.516;2024-02-14T13:48:19;77.55;;;44.33;;
34988;SDS011;21192;40.182;44.516;2024-02-14T13:50:45;75.47;;;41.92;;
34988;SDS011;21192;40.182;44.516;2024-02-14T13:53:11;79.78;;;44.42;;
34988;SDS011;21192;40.182;44.516;2024-02-14T13:55:37;84.45;;;44.20;;
34988;SDS011;21192;40.182;44.516;2024-02-14T13:58:04;67.85;;;41.15;;
34988;SDS011;21192;40.182;44.516;2024-02-14T14:00:30;74.70;;;43.97;;
34988;SDS011;21192;40.182;44.516;2024-02-14T14:02:57;79.05;;;41.75;;
34988;SDS011;21192;40.182;44.516;2024-02-14T14:05:23;79.25;;;42.03;;